Time;durP1;ratioP1;P1;durP2;ratioP2;P2;SDS_P1;SDS_P2;PMS_P1;PMS_P2;Temp;Humidity;BMP_temperature;BMP_pressure;BME280_temperature;BME280_humidity;BME280_pressure;Samples;Min_cycle;Max_cycle;Signal;HPM_P1;HPM_P2
2024/04/02 00:01:04;;;;;;;;;;;7.40;99.90;;;6.54;100.00;96869.25;4974577;28;1439;-70
2024/04/02 00:03:30;;;;;;;;;;;7.40;99.90;;;6.57;100.00;96873.44;4958121;28;1997;-70
2024/04/02 00:05:56;;;;;;;;;;;7.40;99.90;;;6.55;100.00;96885.59;4956483;28;2296;-70
2024/04/02 00:08:22;;;;;;;;;;;7.40;99.90;;;6.47;100.00;96883.28;4973727;28;1491;-70
2024/04/02 00:10:48;;;;;;;;;;;7.30;99.90;;;6.52;100.00;96894.25;4940728;28;1868;-70
2024/04/02 00:13:14;;;;;;;;;;;7.30;99.90;;;6.57;100.00;96899.22;4961719;28;1563;-70
2024/04/02 00:15:47;;;;;;;;;;;7.30;99.90;;;6.48;100.00;96885.81;4940832;28;1458;-70
2024/04/02 00:18:15;;;;;;;;;;;7.30;99.90;;;6.54;100.00;96894.19;4971180;28;1613;-70
2024/04/02 00:20:42;;;;;;;;;;;7.30;99.90;;;6.43;100.00;96892.88;4957710;28;1941;-69
2024/04/02 00:23:08;;;;;;;;;;;7.30;99.90;;;6.45;100.00;96887.63;4941080;28;1942;-70
2024/04/02 00:25:35;;;;;;;;;;;7.20;99.90;;;6.55;100.00;96903.63;4956165;28;1608;-70
2024/04/02 00:28:01;;;;;;;;;;;7.30;99.90;;;6.49;100.00;96904.69;4957694;28;1615;-70
2024/04/02 00:30:28;;;;;;;;;;;7.30;99.90;;;6.48;100.00;96903.00;4968765;28;1472;-70
2024/04/02 00:32:55;;;;;;;;;;;7.30;99.90;;;6.55;100.00;96917.34;4957298;28;1525;-70
2024/04/02 00:35:21;;;;;;;;;;;7.20;99.90;;;6.47;100.00;96907.31;4945509;28;3115;-69
2024/04/02 00:37:51;;;;;;;;;;;7.30;99.90;;;6.42;100.00;96900.66;4963851;28;1598;-70
2024/04/02 00:40:17;;;;;;;;;;;7.30;99.90;;;6.58;100.00;96917.22;4949474;28;1613;-70
2024/04/02 00:42:44;;;;;;;;;;;7.30;99.90;;;6.58;100.00;96909.50;4980790;28;1906;-69
2024/04/02 00:45:11;;;;;;;;;;;7.30;99.90;;;6.51;100.00;96895.16;4963898;28;1775;-70
2024/04/02 00:47:39;;;;;;;;;;;7.40;99.90;;;6.70;100.00;96903.03;4965209;28;1779;-70
2024/04/02 00:50:05;;;;;;;;;;;7.30;99.90;;;6.65;100.00;96910.09;4963401;28;1411;-69
2024/04/02 00:52:31;;;;;;;;;;;7.40;99.90;;;6.57;100.00;96905.25;4994006;28;1397;-70
2024/04/02 00:54:58;;;;;;;;;;;7.40;99.90;;;6.60;100.00;96901.72;4945792;28;1786;-70
2024/04/02 00:57:25;;;;;;;;;;;7.40;99.90;;;6.65;100.00;96925.59;4965722;28;1674;-70
2024/04/02 00:59:51;;;;;;;;;;;7.40;99.90;;;6.62;100.00;96915.38;4978900;28;1651;-70
2024/04/02 01:02:18;;;;;;;;;;;7.40;99.90;;;6.67;100.00;96918.63;4992734;28;1977;-70
2024/04/02 01:04:47;;;;;;;;;;;7.40;99.90;;;6.72;100.00;96923.63;4976090;28;1736;-70
2024/04/02 01:07:14;;;;;;;;;;;7.40;99.90;;;6.64;100.00;96906.69;4960466;28;1763;-70
2024/04/02 01:09:58;;;;;;;;;;;7.40;99.90;;;6.71;100.00;96912.47;4964226;28;1143;-70
2024/04/02 01:12:24;;;;;;;;;;;7.40;99.90;;;6.67;100.00;96900.56;4963187;28;1752;-70
2024/04/02 01:14:50;;;;;;;;;;;7.50;99.90;;;6.63;100.00;96902.41;4965638;28;1656;-70
2024/04/02 01:17:17;;;;;;;;;;;7.50;99.90;;;6.63;100.00;96907.56;4964866;28;2982;-69
2024/04/02 01:19:42;;;;;;;;;;;7.50;99.90;;;6.63;100.00;96905.00;4963021;28;1585;-70
2024/04/02 01:22:08;;;;;;;;;;;7.50;99.90;;;6.61;100.00;96901.63;4961689;28;1899;-69
2024/04/02 01:24:34;;;;;;;;;;;7.50;99.90;;;6.55;100.00;96890.75;4961755;28;1829;-70
2024/04/02 01:27:02;;;;;;;;;;;7.40;99.90;;;6.50;100.00;96896.06;4966617;28;1611;-70
2024/04/02 01:29:28;;;;;;;;;;;7.50;99.90;;;6.53;100.00;96910.56;4980598;28;1661;-70
2024/04/02 01:31:54;;;;;;;;;;;7.40;99.90;;;6.49;100.00;96910.66;4962688;28;2328;-70
2024/04/02 01:34:20;;;;;;;;;;;7.40;99.90;;;6.58;100.00;96914.66;4963289;28;1752;-70
2024/04/02 01:36:46;;;;;;;;;;;7.40;99.90;;;6.51;100.00;96927.84;4962941;28;2444;-70
2024/04/02 01:39:12;;;;;;;;;;;7.30;99.90;;;6.56;100.00;96915.59;4962484;28;1525;-70
2024/04/02 01:41:38;;;;;;;;;;;7.40;99.90;;;6.56;100.00;96913.88;4964185;28;1603;-70
2024/04/02 01:44:04;;;;;;;;;;;7.40;99.90;;;6.49;100.00;96922.72;4967061;28;1923;-70
2024/04/02 01:46:30;;;;;;;;;;;7.30;99.90;;;6.59;100.00;96933.53;4962876;28;1720;-70
2024/04/02 01:48:56;;;;;;;;;;;7.30;99.90;;;6.48;100.00;96929.63;4961136;28;1592;-70
2024/04/02 01:51:22;;;;;;;;;;;7.40;99.90;;;6.45;100.00;96940.06;4945056;28;2137;-70
2024/04/02 01:53:48;;;;;;;;;;;7.30;99.90;;;6.54;100.00;96938.84;4958724;28;1666;-70
2024/04/02 01:56:14;;;;;;;;;;;7.30;99.90;;;6.53;100.00;96957.81;4965091;28;1593;-70
2024/04/02 01:58:40;;;;;;;;;;;7.30;99.90;;;6.45;100.00;96941.78;4980377;28;1753;-70
2024/04/02 02:01:06;;;;;;;;;;;7.30;99.90;;;6.49;100.00;96948.50;4961900;28;3103;-70
2024/04/02 02:03:32;;;;;;;;;;;7.30;99.90;;;6.52;100.00;96957.88;4945667;28;1903;-70
2024/04/02 02:05:58;;;;;;;;;;;7.30;99.90;;;6.64;100.00;96960.03;4963587;28;2603;-70
2024/04/02 02:08:23;;;;;;;;;;;7.20;99.90;;;6.61;100.00;96957.53;4977179;28;1382;-68
2024/04/02 02:10:54;;;;;;;;;;;7.30;99.90;;;6.52;100.00;96945.81;4964753;28;1561;-70
2024/04/02 02:13:20;;;;;;;;;;;7.30;99.90;;;6.63;100.00;96951.41;4957734;28;1777;-70
2024/04/02 02:15:56;;;;;;;;;;;7.30;99.90;;;6.49;100.00;96946.75;4945584;28;1571;-70
2024/04/02 02:18:22;;;;;;;;;;;7.30;99.90;;;6.55;100.00;96955.19;4960578;28;1647;-70
2024/04/02 02:20:48;;;;;;;;;;;7.30;99.90;;;6.59;100.00;96960.19;4958141;28;1543;-70
2024/04/02 02:23:14;;;;;;;;;;;7.30;99.90;;;6.51;100.00;96964.78;4959276;28;1899;-70
2024/04/02 02:25:40;;;;;;;;;;;7.30;99.90;;;6.69;100.00;96968.41;4959261;28;1574;-70
2024/04/02 02:28:06;;;;;;;;;;;7.30;99.90;;;6.54;100.00;96958.66;4963611;28;1703;-71
2024/04/02 02:30:32;;;;;;;;;;;7.20;99.90;;;6.44;100.00;96947.84;4944234;28;1555;-70
2024/04/02 02:32:58;;;;;;;;;;;7.30;99.90;;;6.54;100.00;96959.50;4945756;28;1757;-71
2024/04/02 02:35:24;;;;;;;;;;;7.30;99.90;;;6.59;100.00;96975.66;4945649;28;2011;-70
2024/04/02 02:37:49;;;;;;;;;;;7.20;99.90;;;6.47;100.00;96966.59;4959752;28;1844;-70
2024/04/02 02:40:15;;;;;;;;;;;7.30;99.90;;;6.46;100.00;96964.94;4979706;28;1694;-68
2024/04/02 02:42:41;;;;;;;;;;;7.30;99.90;;;6.51;100.00;96969.94;4961540;28;1899;-68
2024/04/02 02:45:07;;;;;;;;;;;7.20;99.90;;;6.46;100.00;96972.66;4945410;28;1740;-68
2024/04/02 02:47:33;;;;;;;;;;;7.20;99.90;;;6.54;100.00;96971.53;4959287;28;1464;-70
2024/04/02 02:49:59;;;;;;;;;;;7.20;99.90;;;6.59;100.00;96960.19;4963989;28;3452;-68
2024/04/02 02:52:25;;;;;;;;;;;7.30;99.90;;;6.52;100.00;96960.44;4958531;28;1794;-70
2024/04/02 02:54:50;;;;;;;;;;;7.30;99.90;;;6.55;100.00;96968.94;4946153;28;1631;-70
2024/04/02 02:57:16;;;;;;;;;;;7.30;99.90;;;6.66;100.00;96966.78;4949758;28;1767;-71
2024/04/02 02:59:44;;;;;;;;;;;7.30;99.90;;;6.67;100.00;96976.19;4960240;28;1596;-71
2024/04/02 03:02:10;;;;;;;;;;;7.30;99.90;;;6.55;100.00;96983.56;4931622;28;2039;-70
2024/04/02 03:04:35;;;;;;;;;;;7.30;99.90;;;6.59;100.00;96975.66;4960299;28;1910;-70
2024/04/02 03:07:02;;;;;;;;;;;7.30;99.90;;;6.49;100.00;96987.19;4982936;28;1886;-69
2024/04/02 03:09:27;;;;;;;;;;;7.30;99.90;;;6.60;100.00;96989.38;4992156;28;1808;-69
2024/04/02 03:11:53;;;;;;;;;;;7.30;99.90;;;6.62;100.00;96985.00;4961039;28;1934;-68
2024/04/02 03:14:21;;;;;;;;;;;7.30;99.90;;;6.65;100.00;96979.75;4963488;28;1751;-71
2024/04/02 03:16:47;;;;;;;;;;;7.30;99.90;;;6.57;100.00;96989.47;4962872;28;2044;-68
2024/04/02 03:19:13;;;;;;;;;;;7.30;99.90;;;6.55;100.00;96976.66;4975078;28;1674;-68
2024/04/02 03:21:40;;;;;;;;;;;7.40;99.90;;;6.53;100.00;96991.34;4974413;28;1632;-68
2024/04/02 03:24:05;;;;;;;;;;;7.40;99.90;;;6.62;100.00;96996.16;4962039;28;1970;-70
2024/04/02 03:26:31;;;;;;;;;;;7.30;99.90;;;6.63;100.00;97004.72;4943155;28;1612;-69
2024/04/02 03:28:57;;;;;;;;;;;7.30;99.90;;;6.57;100.00;96984.31;4961303;28;1342;-69
2024/04/02 03:31:23;;;;;;;;;;;7.40;99.90;;;6.72;100.00;97003.56;4962059;28;3114;-68
2024/04/02 03:33:49;;;;;;;;;;;7.30;99.90;;;6.72;100.00;97006.16;4959300;28;1596;-69
2024/04/02 03:36:15;;;;;;;;;;;7.30;99.90;;;6.68;100.00;96989.94;4959340;28;1770;-68
2024/04/02 03:38:41;;;;;;;;;;;7.30;99.90;;;6.70;100.00;96996.75;4959307;28;1443;-68
2024/04/02 03:41:12;;;;;;;;;;;7.30;99.90;;;6.64;100.00;97009.00;4991481;28;1662;-70
2024/04/02 03:43:40;;;;;;;;;;;7.30;99.90;;;6.58;100.00;97009.22;4961286;28;1982;-71
2024/04/02 03:46:06;;;;;;;;;;;7.30;99.90;;;6.60;100.00;96992.78;4981633;28;1547;-70
2024/04/02 03:48:33;;;;;;;;;;;7.30;99.90;;;6.62;100.00;97006.47;4961025;28;2149;-70
2024/04/02 03:50:59;;;;;;;;;;;7.30;99.90;;;6.65;100.00;97006.34;4959563;28;1565;-70
2024/04/02 03:53:25;;;;;;;;;;;7.30;99.90;;;6.64;100.00;97017.59;4957836;28;1571;-70
2024/04/02 03:56:02;;;;;;;;;;;7.30;99.90;;;6.60;100.00;97017.75;4961255;28;1428;-70
2024/04/02 03:58:29;;;;;;;;;;;7.30;99.90;;;6.66;100.00;97005.47;4978643;28;1845;-68
2024/04/02 04:00:55;;;;;;;;;;;7.30;99.90;;;6.56;100.00;97032.47;4961302;28;1997;-69
2024/04/02 04:03:21;;;;;;;;;;;7.30;99.90;;;6.67;100.00;97027.78;4978570;28;1898;-70
2024/04/02 04:05:59;;;;;;;;;;;7.30;99.90;;;6.60;100.00;97017.75;4957859;28;1745;-69
2024/04/02 04:08:28;;;;;;;;;;;7.40;99.90;;;6.66;100.00;97020.94;4962486;28;1578;-70
2024/04/02 04:10:54;;;;;;;;;;;7.40;99.90;;;6.60;100.00;97034.06;4969850;28;1619;-70
2024/04/02 04:13:21;;;;;;;;;;;7.50;99.90;;;6.59;100.00;97034.97;4998846;28;1644;-70
2024/04/02 04:15:54;;;;;;;;;;;7.40;99.90;;;6.68;100.00;97041.50;4962931;28;1638;-70
2024/04/02 04:18:21;;;;;;;;;;;7.30;99.90;;;6.43;100.00;97052.72;4977726;28;3045;-70
2024/04/02 04:20:55;;;;;;;;;;;7.30;99.90;;;6.40;100.00;97062.28;4959565;28;1481;-70
2024/04/02 04:23:21;;;;;;;;;;;7.30;99.90;;;6.30;100.00;97069.47;4963087;28;1907;-71
2024/04/02 04:25:56;;;;;;;;;;;7.20;99.90;;;6.34;100.00;97067.63;4963855;28;1599;-70
2024/04/02 04:28:22;;;;;;;;;;;7.20;99.90;;;6.39;100.00;97087.22;4952430;28;1593;-70
2024/04/02 04:31:02;;;;;;;;;;;7.20;99.90;;;6.31;100.00;97093.50;4961497;28;2024;-70
2024/04/02 04:33:29;;;;;;;;;;;7.20;99.90;;;6.21;100.00;97093.81;4964556;28;1269;-70
2024/04/02 04:35:55;;;;;;;;;;;7.10;99.90;;;6.19;100.00;97113.63;4964935;28;1676;-69
2024/04/02 04:38:22;;;;;;;;;;;7.00;99.90;;;6.14;100.00;97091.50;4979937;28;1563;-70
2024/04/02 04:40:48;;;;;;;;;;;7.00;99.90;;;6.15;100.00;97104.31;4961278;28;1374;-70
2024/04/02 04:43:16;;;;;;;;;;;6.90;99.90;;;6.13;100.00;97108.66;4981644;28;1899;-70
2024/04/02 04:45:55;;;;;;;;;;;6.90;99.90;;;6.17;100.00;97120.56;4964482;28;1976;-70
2024/04/02 04:48:22;;;;;;;;;;;6.90;99.90;;;6.15;100.00;97127.50;4963232;28;1365;-70
2024/04/02 04:50:58;;;;;;;;;;;6.90;99.90;;;6.07;100.00;97122.59;4966937;28;1603;-70
2024/04/02 04:53:24;;;;;;;;;;;6.90;99.90;;;6.10;100.00;97131.97;4965278;28;1453;-70
2024/04/02 04:55:50;;;;;;;;;;;6.90;99.90;;;6.10;100.00;97133.72;4962796;28;1629;-70
2024/04/02 04:58:16;;;;;;;;;;;6.90;99.90;;;6.15;100.00;97130.09;4964482;28;1743;-70
2024/04/02 05:00:43;;;;;;;;;;;6.80;99.90;;;6.12;100.00;97131.94;4948343;28;3194;-70
2024/04/02 05:03:09;;;;;;;;;;;6.90;99.90;;;6.15;100.00;97152.44;4963329;28;1899;-70
2024/04/02 05:05:35;;;;;;;;;;;6.80;99.90;;;6.12;100.00;97148.22;4964359;28;1571;-70
2024/04/02 05:08:22;;;;;;;;;;;6.80;99.90;;;6.13;100.00;97143.91;4968505;28;1618;-70
2024/04/02 05:10:49;;;;;;;;;;;6.80;99.90;;;6.13;100.00;97164.53;4979546;28;1593;-69
2024/04/02 05:13:16;;;;;;;;;;;6.80;99.90;;;6.06;100.00;97159.56;4978889;28;2256;-70
2024/04/02 05:15:42;;;;;;;;;;;6.80;99.90;;;6.12;100.00;97165.44;4946662;28;2316;-70
2024/04/02 05:18:08;;;;;;;;;;;6.90;99.90;;;6.12;100.00;97152.56;4958939;28;1593;-69
2024/04/02 05:20:35;;;;;;;;;;;6.80;99.90;;;6.08;100.00;97169.81;4964288;28;1639;-70
2024/04/02 05:23:01;;;;;;;;;;;6.90;99.90;;;6.08;100.00;97159.53;4962794;28;1906;-70
2024/04/02 05:25:27;;;;;;;;;;;6.90;99.90;;;6.10;100.00;97165.47;4964644;28;1549;-70
2024/04/02 05:27:53;;;;;;;;;;;6.90;99.90;;;6.09;100.00;97174.09;4963050;28;2188;-70
2024/04/02 05:30:20;;;;;;;;;;;6.90;99.90;;;6.15;100.00;97185.94;4963496;28;1600;-70
2024/04/02 05:32:46;;;;;;;;;;;6.90;99.90;;;6.21;100.00;97173.72;4964410;28;1351;-70
2024/04/02 05:35:12;;;;;;;;;;;6.90;99.90;;;6.19;100.00;97178.06;4979761;28;2353;-70
2024/04/02 05:37:38;;;;;;;;;;;6.90;99.90;;;6.15;100.00;97181.63;4962305;28;1461;-70
2024/04/02 05:40:05;;;;;;;;;;;6.90;99.90;;;6.15;100.00;97183.38;4963975;28;1425;-70
2024/04/02 05:42:31;;;;;;;;;;;6.90;99.90;;;6.22;100.00;97201.16;4961493;28;1975;-70
2024/04/02 05:44:57;;;;;;;;;;;6.90;99.90;;;6.25;100.00;97205.41;4960549;28;1466;-70
2024/04/02 05:47:23;;;;;;;;;;;6.90;99.90;;;6.26;100.00;97191.59;4961593;28;1771;-70
2024/04/02 05:49:49;;;;;;;;;;;7.00;99.90;;;6.24;100.00;97193.38;4961945;28;3233;-70
2024/04/02 05:52:16;;;;;;;;;;;6.90;99.90;;;6.19;100.00;97192.69;4962071;28;1627;-71
2024/04/02 05:54:42;;;;;;;;;;;6.90;99.90;;;6.26;100.00;97207.06;4977765;28;2238;-71
2024/04/02 05:57:08;;;;;;;;;;;7.00;99.90;;;6.26;100.00;97215.63;4977065;28;1617;-70
2024/04/02 05:59:34;;;;;;;;;;;7.00;99.90;;;6.24;100.00;97214.00;4962534;28;1715;-70
2024/04/02 06:02:00;;;;;;;;;;;7.00;99.90;;;6.34;100.00;97220.56;4979212;28;2378;-69
2024/04/02 06:04:26;;;;;;;;;;;7.10;99.90;;;6.35;100.00;97211.94;4974709;28;1976;-70
2024/04/02 06:06:52;;;;;;;;;;;7.00;99.90;;;6.33;100.00;97210.31;4963915;28;1610;-70
2024/04/02 06:09:21;;;;;;;;;;;7.10;99.90;;;6.35;100.00;97214.50;4960395;28;1587;-70
2024/04/02 06:11:47;;;;;;;;;;;7.10;99.90;;;6.37;100.00;97227.34;4994199;28;1614;-70
2024/04/02 06:14:13;;;;;;;;;;;7.10;99.90;;;6.35;100.00;97229.97;4995146;28;1759;-70
2024/04/02 06:16:39;;;;;;;;;;;7.10;99.90;;;6.41;100.00;97229.78;4962215;28;2075;-70
2024/04/02 06:19:06;;;;;;;;;;;7.10;99.90;;;6.44;100.00;97234.00;4960460;28;1243;-70
2024/04/02 06:21:32;;;;;;;;;;;7.20;99.90;;;6.56;100.00;97241.34;4973823;28;1497;-70
2024/04/02 06:23:58;;;;;;;;;;;7.20;99.90;;;6.60;100.00;97236.94;4962116;28;1982;-69
2024/04/02 06:26:24;;;;;;;;;;;7.10;99.90;;;6.52;100.00;97237.16;4960683;28;1913;-70
2024/04/02 06:28:50;;;;;;;;;;;7.20;99.90;;;6.63;100.00;97244.56;4958535;28;1766;-69
2024/04/02 06:31:16;;;;;;;;;;;7.20;99.90;;;6.55;100.00;97238.84;4974241;28;3076;-70
2024/04/02 06:33:42;;;;;;;;;;;7.30;99.90;;;6.65;100.00;97242.78;4956719;28;1592;-70
2024/04/02 06:36:08;;;;;;;;;;;7.20;99.90;;;6.67;100.00;97248.75;4959827;28;1626;-69
2024/04/02 06:38:33;;;;;;;;;;;7.30;99.90;;;6.72;100.00;97233.94;4959485;28;1770;-70
2024/04/02 06:40:59;;;;;;;;;;;7.30;99.90;;;6.77;100.00;97242.38;4960055;28;1376;-69
2024/04/02 06:43:25;;;;;;;;;;;7.40;99.90;;;6.67;100.00;97238.44;4976742;28;2001;-69
2024/04/02 06:45:55;;;;;;;;;;;7.40;99.90;;;6.69;100.00;97255.53;4959765;28;2056;-70
2024/04/02 06:48:22;;;;;;;;;;;7.40;99.90;;;6.67;100.00;97254.72;4958743;28;1726;-69
2024/04/02 06:51:01;;;;;;;;;;;7.30;99.90;;;6.76;100.00;97234.72;4958626;28;1671;-69
2024/04/02 06:53:28;;;;;;;;;;;7.40;99.90;;;6.71;100.00;97242.59;4994734;28;1580;-69
2024/04/02 06:55:55;;;;;;;;;;;7.40;99.90;;;6.76;100.00;97242.44;4961763;28;1571;-69
2024/04/02 06:58:22;;;;;;;;;;;7.40;99.90;;;6.82;100.00;97240.50;4961518;28;2083;-69
2024/04/02 07:00:48;;;;;;;;;;;7.50;99.90;;;6.85;100.00;97242.16;4963117;28;1547;-69
2024/04/02 07:03:16;;;;;;;;;;;7.60;99.90;;;6.88;100.00;97240.28;4945764;28;1879;-69
2024/04/02 07:05:43;;;;;;;;;;;7.70;99.90;;;6.93;100.00;97241.88;4991350;28;1583;-69
2024/04/02 07:08:09;;;;;;;;;;;7.70;99.90;;;7.11;100.00;97246.41;4965200;28;1592;-69
2024/04/02 07:10:35;;;;;;;;;;;7.60;99.90;;;7.05;100.00;97244.06;4965274;28;1698;-69
2024/04/02 07:13:01;;;;;;;;;;;7.60;99.90;;;7.02;100.00;97257.88;4958661;28;3198;-70
2024/04/02 07:15:27;;;;;;;;;;;7.60;99.90;;;6.98;100.00;97258.91;4963005;28;1566;-68
2024/04/02 07:17:54;;;;;;;;;;;7.50;99.90;;;6.97;100.00;97254.63;4991714;28;1391;-70
2024/04/02 07:20:21;;;;;;;;;;;7.70;99.90;;;7.08;100.00;97255.09;4974195;28;1685;-68
2024/04/02 07:22:47;;;;;;;;;;;7.80;99.90;;;7.23;100.00;97242.56;4975174;28;1980;-69
2024/04/02 07:25:13;;;;;;;;;;;7.80;99.90;;;7.35;100.00;97264.56;4994770;28;1865;-68
2024/04/02 07:27:40;;;;;;;;;;;7.90;99.90;;;7.15;100.00;97257.50;4961874;28;2165;-71
2024/04/02 07:30:11;;;;;;;;;;;7.90;99.90;;;7.28;100.00;97266.50;4944342;28;2421;-70
2024/04/02 07:32:37;;;;;;;;;;;7.80;99.90;;;7.16;100.00;97274.66;4957619;28;1736;-71
2024/04/02 07:35:03;;;;;;;;;;;7.70;99.90;;;7.20;100.00;97281.41;4959127;28;2236;-68
2024/04/02 07:37:29;;;;;;;;;;;7.70;99.90;;;7.43;100.00;97289.19;4975014;28;1546;-68
2024/04/02 07:39:55;;;;;;;;;;;7.90;99.90;;;7.30;100.00;97242.31;4958915;28;1758;-69
2024/04/02 07:42:21;;;;;;;;;;;8.00;99.90;;;7.37;100.00;97268.78;4959444;28;1696;-69
2024/04/02 07:44:47;;;;;;;;;;;8.00;99.90;;;7.58;100.00;97263.75;4957436;28;1910;-69
2024/04/02 07:47:12;;;;;;;;;;;8.10;99.90;;;7.60;100.00;97270.53;4955583;28;1653;-69
2024/04/02 07:49:38;;;;;;;;;;;8.10;99.90;;;7.76;100.00;97273.41;4956407;28;2413;-69
2024/04/02 07:52:04;;;;;;;;;;;8.10;99.90;;;7.84;100.00;97271.38;4959606;28;1678;-69
2024/04/02 07:54:30;;;;;;;;;;;8.20;99.90;;;7.78;100.00;97256.13;4958598;28;1404;-69
2024/04/02 07:56:56;;;;;;;;;;;8.30;99.90;;;7.97;100.00;97279.53;4961298;28;1850;-69
2024/04/02 07:59:23;;;;;;;;;;;8.20;99.90;;;7.90;100.00;97280.66;4956027;28;1394;-69
2024/04/02 08:01:49;;;;;;;;;;;8.40;99.90;;;8.19;100.00;97284.75;4958560;28;3241;-69
2024/04/02 08:04:16;;;;;;;;;;;8.30;99.90;;;7.96;100.00;97283.03;4958302;28;1930;-69
2024/04/02 08:06:44;;;;;;;;;;;8.30;99.90;;;7.67;100.00;97248.75;4943647;28;1790;-69
2024/04/02 08:09:10;;;;;;;;;;;8.20;99.90;;;7.33;100.00;97280.09;4957697;28;1776;-69
2024/04/02 08:11:37;;;;;;;;;;;8.10;99.90;;;7.09;100.00;97292.94;4970592;28;1651;-69
2024/04/02 08:14:04;;;;;;;;;;;7.90;99.90;;;7.30;100.00;97278.47;4960173;28;1965;-69
2024/04/02 08:16:32;;;;;;;;;;;7.90;99.90;;;7.45;100.00;97277.06;4946871;28;2292;-69
2024/04/02 08:18:58;;;;;;;;;;;8.00;99.90;;;7.48;100.00;97284.75;4991877;28;1809;-69
2024/04/02 08:21:24;;;;;;;;;;;8.30;99.90;;;7.77;100.00;97279.44;4960861;28;1744;-69
2024/04/02 08:23:50;;;;;;;;;;;8.50;99.90;;;7.66;100.00;97272.06;4960985;28;1976;-69
2024/04/02 08:26:16;;;;;;;;;;;8.60;99.90;;;7.53;100.00;97282.00;4959073;28;1653;-69
2024/04/02 08:28:41;;;;;;;;;;;8.30;99.90;;;7.42;100.00;97277.19;4959412;28;1543;-69
2024/04/02 08:31:07;;;;;;;;;;;8.10;99.90;;;7.64;100.00;97279.88;4958197;28;2156;-69
2024/04/02 08:33:33;;;;;;;;;;;8.30;99.90;;;8.16;100.00;97271.94;4975914;28;1595;-69
2024/04/02 08:35:59;;;;;;;;;;;9.20;99.90;;;8.30;100.00;97274.00;4959503;28;1871;-69
2024/04/02 08:38:25;;;;;;;;;;;9.50;99.90;;;8.48;100.00;97252.63;4961103;28;1453;-69
2024/04/02 08:40:52;;;;;;;;;;;9.50;99.90;;;8.75;100.00;97242.06;4962264;28;3041;-69
2024/04/02 08:43:18;;;;;;;;;;;9.10;99.90;;;9.48;100.00;97256.28;4960758;28;2653;-69
2024/04/02 08:45:47;;;;;;;;;;;9.90;99.90;;;9.31;100.00;97235.44;4958630;28;1724;-69
2024/04/02 08:48:14;;;;;;;;;;;10.10;99.90;;;9.19;100.00;97245.44;4977144;28;1734;-69
2024/04/02 08:50:40;;;;;;;;;;;9.80;99.90;;;8.63;100.00;97219.28;4943855;28;1688;-68
2024/04/02 08:53:07;;;;;;;;;;;9.70;99.90;;;8.49;100.00;97231.03;4963458;28;1627;-70
2024/04/02 08:55:34;;;;;;;;;;;9.40;99.90;;;8.87;100.00;97241.59;4965659;28;2138;-69
2024/04/02 08:58:03;;;;;;;;;;;9.60;99.90;;;8.46;100.00;97249.28;4965073;28;1418;-69
2024/04/02 09:00:29;;;;;;;;;;;9.40;99.90;;;8.59;100.00;97234.09;4995784;28;1448;-69
2024/04/02 09:02:56;;;;;;;;;;;9.40;99.90;;;8.45;100.00;97251.91;4962494;28;2383;-69
2024/04/02 09:05:22;;;;;;;;;;;9.10;99.90;;;8.53;100.00;97232.59;4980615;28;2468;-69
2024/04/02 09:07:48;;;;;;;;;;;9.00;99.90;;;8.69;100.00;97242.31;4964914;28;1628;-69
2024/04/02 09:10:14;;;;;;;;;;;9.30;99.90;;;8.49;100.00;97267.25;4964774;28;1673;-69
2024/04/02 09:12:40;;;;;;;;;;;9.10;99.90;;;8.42;100.00;97257.22;4963806;28;1704;-69
2024/04/02 09:15:07;;;;;;;;;;;9.00;99.90;;;8.27;100.00;97263.78;4967363;28;1624;-69
2024/04/02 09:17:33;;;;;;;;;;;9.00;99.90;;;8.11;100.00;97242.84;4965362;28;1342;-69
2024/04/02 09:20:00;;;;;;;;;;;9.00;99.90;;;8.32;100.00;97264.44;4961433;28;3279;-69
2024/04/02 09:22:26;;;;;;;;;;;9.10;99.90;;;8.34;100.00;97260.03;4963675;28;1844;-69
2024/04/02 09:24:52;;;;;;;;;;;9.10;99.90;;;8.47;100.00;97263.88;4963759;28;1899;-69
2024/04/02 09:27:19;;;;;;;;;;;9.10;99.90;;;8.63;100.00;97240.00;4963061;28;1658;-69
2024/04/02 09:29:46;;;;;;;;;;;9.60;99.90;;;8.62;100.00;97248.66;4963190;28;1826;-69
2024/04/02 09:32:16;;;;;;;;;;;9.50;99.90;;;9.14;100.00;97257.69;4964897;28;1378;-69
2024/04/02 09:34:45;;;;;;;;;;;9.60;99.90;;;8.91;100.00;97252.66;4948402;28;2427;-69
2024/04/02 09:37:26;;;;;;;;;;;9.60;99.90;;;8.64;100.00;97245.09;4947354;28;1575;-69
2024/04/02 09:39:53;;;;;;;;;;;9.50;99.90;;;8.74;100.00;97256.78;4962816;28;1564;-70
2024/04/02 09:42:19;;;;;;;;;;;9.40;99.90;;;8.65;100.00;97220.91;4962018;28;1608;-69
2024/04/02 09:44:45;;;;;;;;;;;9.40;99.90;;;8.70;100.00;97247.44;4961450;28;1906;-69
2024/04/02 09:47:12;;;;;;;;;;;9.40;99.90;;;8.88;100.00;97238.09;4944490;28;1666;-69
2024/04/02 09:49:38;;;;;;;;;;;9.60;99.90;;;9.55;100.00;97259.44;4944861;28;2181;-69
2024/04/02 09:52:04;;;;;;;;;;;9.70;99.90;;;9.47;100.00;97241.66;4960188;28;1590;-69
2024/04/02 09:54:30;;;;;;;;;;;10.20;99.90;;;9.88;100.00;97264.91;4975828;28;1664;-69
2024/04/02 09:56:58;;;;;;;;;;;10.50;99.90;;;9.71;100.00;97233.69;4944464;28;1729;-69
2024/04/02 09:59:24;;;;;;;;;;;10.50;99.90;;;9.81;100.00;97212.47;4981809;28;1640;-69
2024/04/02 10:01:50;;;;;;;;;;;10.30;99.90;;;10.15;100.00;97212.66;4945095;28;3175;-69
2024/04/02 10:04:18;;;;;;;;;;;11.00;99.90;;;10.83;100.00;97221.56;4945368;28;1986;-69
2024/04/02 10:06:46;;;;;;;;;;;11.40;99.90;;;11.13;100.00;97214.88;4943785;28;1486;-69
2024/04/02 10:09:12;;;;;;;;;;;11.80;99.90;;;11.47;100.00;97219.19;4944820;28;1628;-70
2024/04/02 10:11:39;;;;;;;;;;;11.70;99.90;;;11.95;100.00;97185.50;4962895;28;1418;-69
2024/04/02 10:14:11;;;;;;;;;;;12.00;99.90;;;10.78;100.00;97236.50;4976594;28;1998;-69
2024/04/02 10:16:50;;;;;;;;;;;11.50;99.90;;;10.71;100.00;97224.72;4962253;28;1721;-69
2024/04/02 10:19:22;;;;;;;;;;;11.00;99.90;;;10.91;100.00;97213.38;4975876;28;1493;-69
2024/04/02 10:21:48;;;;;;;;;;;11.30;99.90;;;11.00;100.00;97191.31;4975891;28;1746;-69
2024/04/02 10:24:15;;;;;;;;;;;11.80;99.90;;;10.98;100.00;97225.13;4945965;28;1985;-69
2024/04/02 10:26:42;;;;;;;;;;;11.60;99.90;;;11.09;100.00;97222.84;4959311;28;1807;-69
2024/04/02 10:29:08;;;;;;;;;;;11.60;99.90;;;10.87;100.00;97199.69;4945178;28;2176;-69
2024/04/02 10:31:42;;;;;;;;;;;11.40;99.90;;;9.92;100.00;97221.50;4959547;28;1453;-70
2024/04/02 10:34:09;;;;;;;;;;;10.80;99.90;;;9.74;100.00;97236.13;4944724;28;2436;-69
2024/04/02 10:36:36;;;;;;;;;;;10.40;99.90;;;9.15;100.00;97206.78;4962978;28;2423;-69
2024/04/02 10:39:03;;;;;;;;;;;10.30;99.90;;;9.27;100.00;97233.91;4963556;28;1478;-69
2024/04/02 10:41:30;;;;;;;;;;;9.90;99.90;;;9.19;100.00;97262.69;4946519;28;1635;-69
2024/04/02 10:43:57;;;;;;;;;;;9.90;99.90;;;9.63;100.00;97236.63;4965439;28;1895;-69
2024/04/02 10:46:27;;;;;;;;;;;10.10;99.90;;;9.24;100.00;97241.78;4962337;28;1616;-69
2024/04/02 10:49:01;;;;;;;;;;;10.20;99.90;;;9.50;100.00;97269.16;4961721;28;3264;-69
2024/04/02 10:51:27;;;;;;;;;;;10.00;99.90;;;10.11;100.00;97255.25;4948180;28;1649;-69
2024/04/02 10:53:54;;;;;;;;;;;10.20;99.90;;;10.10;100.00;97256.13;4963952;28;1732;-69
2024/04/02 10:56:24;;;;;;;;;;;10.60;99.90;;;10.05;100.00;97262.38;4961830;28;2346;-69
2024/04/02 10:58:51;;;;;;;;;;;10.90;99.90;;;9.67;100.00;97253.72;4945743;28;2495;-68
2024/04/02 11:01:19;;;;;;;;;;;10.70;99.90;;;9.63;100.00;97262.56;4977712;28;1762;-69
2024/04/02 11:03:45;;;;;;;;;;;10.50;99.90;;;9.59;100.00;97267.00;4964331;28;1902;-69
2024/04/02 11:06:12;;;;;;;;;;;10.30;99.90;;;9.89;100.00;97274.34;4965212;28;1834;-69
2024/04/02 11:08:39;;;;;;;;;;;10.30;99.90;;;10.18;100.00;97280.81;4964525;28;1820;-69
2024/04/02 11:11:05;;;;;;;;;;;10.50;99.90;;;9.70;100.00;97253.59;4963302;28;2654;-68
2024/04/02 11:13:31;;;;;;;;;;;10.60;99.90;;;10.04;100.00;97285.78;4945436;28;1906;-69
2024/04/02 11:15:57;;;;;;;;;;;10.30;99.90;;;10.20;100.00;97273.81;4994606;28;1638;-69
2024/04/02 11:18:26;;;;;;;;;;;10.40;99.90;;;10.65;100.00;97257.03;4972298;28;1634;-69
2024/04/02 11:21:00;;;;;;;;;;;10.90;99.90;;;10.88;100.00;97274.09;4946383;28;1623;-69
2024/04/02 11:26:16;;;;;;;;;;;11.40;99.90;;;10.42;100.00;97265.91;4962925;28;3209;-69
2024/04/02 11:28:42;;;;;;;;;;;11.20;99.90;;;10.31;100.00;97259.50;4992808;28;1732;-69
2024/04/02 11:31:12;;;;;;;;;;;11.20;99.90;;;9.97;100.00;97298.19;4961981;28;1494;-69
2024/04/02 11:33:39;;;;;;;;;;;10.70;99.90;;;10.30;100.00;97300.19;4992113;28;2340;-69